WetterOnline ( https://www.wetteronline.at )

Wetter aktuell Frankfurt am Main

Aktuelles Wetter: Offenbach (119m)

6-stündlich | Neueste Meldungen
Ortszeit Temperatur Wetter
Fr, 14.06. 8:00 13.1° C leichter Regen
Fr, 14.06. 2:00 12.0° C bedeckt
Do, 13.06. 20:00 18.4° C bewölkt
Do, 13.06. 14:00 17.2° C bewölkt
Do, 13.06. 8:00 11.9° C bedeckt
Do, 13.06. 2:00 13.1° C bedeckt
Mi, 12.06. 20:00 15.7° C bedeckt
Mi, 12.06. 14:00 17.4° C bewölkt
Ortszeit Temperatur Wetter
Fr, 14.06. 11:00 14.7° C bewölkt
Fr, 14.06. 10:50 14.7° C bewölkt
Fr, 14.06. 10:40 14.7° C bedeckt
Fr, 14.06. 10:30 14.6° C bedeckt
Fr, 14.06. 10:20 14.6° C bedeckt
Fr, 14.06. 10:10 14.9° C leichter Regen
Fr, 14.06. 10:00 14.7° C Regen
Fr, 14.06. 9:30 14.4° C leichter Regen
Fr, 14.06. 9:00 14.3° C bedeckt
Fr, 14.06. 8:30 13.7° C bewölkt
Fr, 14.06. 8:00 13.1° C leichter Regen
Ortszeit Relative Feuchte Sichtweite
Fr, 14.06. 8:00 70% 35 km
Fr, 14.06. 2:00 74% 45 km
Do, 13.06. 20:00 41% 55 km
Do, 13.06. 14:00 43% 45 km
Do, 13.06. 8:00 68% 40 km
Do, 13.06. 2:00 59% 45 km
Mi, 12.06. 20:00 48% 60 km
Mi, 12.06. 14:00 47% 40 km
Ortszeit Relative Feuchte Sichtweite
Fr, 14.06. 11:00 75% -
Fr, 14.06. 10:50 75% -
Fr, 14.06. 10:40 74% -
Fr, 14.06. 10:30 73% 50 km
Fr, 14.06. 10:20 73% -
Fr, 14.06. 10:10 72% -
Fr, 14.06. 10:00 71% 45 km
Fr, 14.06. 9:30 72% 30 km
Fr, 14.06. 9:00 69% 35 km
Fr, 14.06. 8:30 70% 40 km
Fr, 14.06. 8:00 70% 35 km
Ortszeit Niederschlagsmenge Niederschlagsart
Fr, 14.06. 8:00 0.1 l/m2 in 12 Std. Regen
Fr, 14.06. 2:00 0.0 l/m2 in 6 Std. -
Do, 13.06. 20:00 0.0 l/m2 in 12 Std. -
Do, 13.06. 14:00 0.0 l/m2 in 6 Std. -
Do, 13.06. 8:00 0.0 l/m2 in 12 Std. -
Do, 13.06. 2:00 0.0 l/m2 in 6 Std. -
Mi, 12.06. 20:00 0.0 l/m2 in 12 Std. -
Mi, 12.06. 14:00 0.0 l/m2 in 6 Std. -
Ortszeit Niederschlagsmenge Niederschlagsart
Fr, 14.06. 11:00 <0.05 l/m2 in 1 Std. Regen
Fr, 14.06. 10:50 keine Meldung -
Fr, 14.06. 10:40 keine Meldung -
Fr, 14.06. 10:30 <0.05 l/m2 in 30 Min Schneeregen
Fr, 14.06. 10:20 keine Meldung -
Fr, 14.06. 10:10 keine Meldung -
Fr, 14.06. 10:00 <0.05 l/m2 in 1 Std. Regen
Fr, 14.06. 9:30 <0.05 l/m2 in 30 Min -
Fr, 14.06. 9:00 <0.05 l/m2 in 1 Std. Regen
Fr, 14.06. 8:30 <0.05 l/m2 in 30 Min Schneeregen
Fr, 14.06. 8:00 <0.05 l/m2 in 1 Std. Regen
Ortszeit Stärke Spitze Richtung
km/h Bft. km/h Grad Sektor
Fr, 14.06. 8:00 6 1 11 170° S
Fr, 14.06. 2:00 7 2 11 120° SO
Do, 13.06. 20:00 6 1 26 210° SW
Do, 13.06. 14:00 7 2 19 230° SW
Do, 13.06. 8:00 4 1 18 40° NO
Do, 13.06. 2:00 9 2 22 320° NW
Mi, 12.06. 20:00 9 2 28 330° NW
Mi, 12.06. 14:00 2 1 20 360° N
Ortszeit Stärke Spitze Richtung
km/h Bft. km/h Grad Sektor
Fr, 14.06. 11:00 6 1 13 220° SW
Fr, 14.06. 10:50 6 1 - 220° SW
Fr, 14.06. 10:40 6 1 - 220° SW
Fr, 14.06. 10:30 9 2 13 180° S
Fr, 14.06. 10:20 9 2 - 180° S
Fr, 14.06. 10:10 6 1 - 190° S
Fr, 14.06. 10:00 7 2 22 210° SW
Fr, 14.06. 9:30 9 2 20 220° SW
Fr, 14.06. 9:00 9 2 26 210° SW
Fr, 14.06. 8:30 7 2 18 220° SW
Fr, 14.06. 8:00 6 1 11 170° S
Ortszeit Untergrenze Bedeckung Gattung
total tief tief mittel hoch
Fr, 14.06. 8:00 2100 m 7/8 7/8 - - -
Fr, 14.06. 2:00 4800 m 8/8 8/8 - - -
Do, 13.06. 20:00 6900 m 8/8 6/8 - - -
Do, 13.06. 14:00 2100 m 7/8 7/8 - - -
Do, 13.06. 8:00 2700 m 8/8 8/8 - - -
Do, 13.06. 2:00 3000 m 8/8 8/8 - - -
Mi, 12.06. 20:00 3000 m 8/8 8/8 - - -
Mi, 12.06. 14:00 1380 m 7/8 7/8 - - -
Ortszeit Bedeckungsgrad in Achtel und Wolkenuntergrenze
Fr, 14.06. 11:00 5(1050m) 7(1350m)
Fr, 14.06. 10:50 5(1050m) 7(1350m)
Fr, 14.06. 10:40 8
Fr, 14.06. 10:30 6(1440m) 8(1500m)
Fr, 14.06. 10:20 6(1440m) 8(1500m)
Fr, 14.06. 10:10 8
Fr, 14.06. 10:00 7(1800m) 8(2100m) 8(2700m)
Fr, 14.06. 9:30 7(1800m) 8(2100m) 8(3000m)
Fr, 14.06. 9:00 8(1800m)
Fr, 14.06. 8:30 1(1140m) 7(2100m) 8(3000m)
Fr, 14.06. 8:00 7(2100m)
Ortszeit Luftdruck NN (hPa) Tendenz (hPa in 3 Std.)
Fr, 14.06. 8:00 1012 0,0
Fr, 14.06. 2:00 1014 - 1,1
Do, 13.06. 20:00 1016 - 1,0
Do, 13.06. 14:00 1018 - 1,3
Do, 13.06. 8:00 1020 + 0,5
Do, 13.06. 2:00 1020 + 0,1
Mi, 12.06. 20:00 1018 + 0,1
Mi, 12.06. 14:00 1019 - 0,6
Ortszeit Luftdruck NN (hPa) Tendenz (hPa in 3 Std.)
Fr, 14.06. 11:00 1012 + 0,2
Fr, 14.06. 10:50 1012 keine Meldung
Fr, 14.06. 10:40 1012 keine Meldung
Fr, 14.06. 10:30 1012 + 0,3
Fr, 14.06. 10:20 1012 keine Meldung
Fr, 14.06. 10:10 1012 keine Meldung
Fr, 14.06. 10:00 1012 + 0,4
Fr, 14.06. 9:30 1012 + 0,6
Fr, 14.06. 9:00 1012 + 0,4
Fr, 14.06. 8:30 1012 + 0,3
Fr, 14.06. 8:00 1012 0,0
Ortszeit Schneehöhe (cm)
Fr, 14.06. 8:00 0
Fr, 14.06. 2:00 0
Do, 13.06. 20:00 0
Do, 13.06. 14:00 0
Do, 13.06. 8:00 0
Do, 13.06. 2:00 0
Mi, 12.06. 20:00 0
Mi, 12.06. 14:00 0
Ortszeit Schneehöhe (cm)
Fr, 14.06. 11:00 0
Fr, 14.06. 10:50 0
Fr, 14.06. 10:40 -
Fr, 14.06. 10:30 0
Fr, 14.06. 10:20 0
Fr, 14.06. 10:10 -
Fr, 14.06. 10:00 0
Fr, 14.06. 9:30 0
Fr, 14.06. 9:00 0
Fr, 14.06. 8:30 0
Fr, 14.06. 8:00 0
Link zu dieser Seite / Seite empfehlen

Das Wetter in ...